createdAt,value
2018-12-04T00:00:36.316Z,12.52
2018-12-04T00:03:07.705Z,12.50
2018-12-04T00:05:38.306Z,12.55
2018-12-04T00:08:10.334Z,12.57
2018-12-04T00:10:41.887Z,12.66
2018-12-04T00:13:13.003Z,12.73
2018-12-04T00:15:43.654Z,12.76
2018-12-04T00:18:15.156Z,12.85
2018-12-04T00:20:45.777Z,12.79
2018-12-04T00:23:16.499Z,12.72
2018-12-04T00:25:47.208Z,12.76
2018-12-04T00:28:17.902Z,12.84
2018-12-04T00:30:49.044Z,12.75
2018-12-04T00:33:20.530Z,12.77
2018-12-04T00:35:51.245Z,12.72
2018-12-04T00:38:22.861Z,12.65
2018-12-04T00:40:54.539Z,12.73
2018-12-04T00:43:25.201Z,12.71
2018-12-04T00:45:55.906Z,12.72
2018-12-04T00:48:26.571Z,12.73
2018-12-04T00:50:57.270Z,12.78
2018-12-04T00:53:27.959Z,12.89
2018-12-04T00:55:58.645Z,12.85
2018-12-04T00:58:29.329Z,12.87
2018-12-04T01:01:00.005Z,12.83
2018-12-04T01:03:35.138Z,12.85
2018-12-04T01:06:14.900Z,12.91
2018-12-04T01:08:45.813Z,12.95
2018-12-04T01:11:16.547Z,12.84
2018-12-04T01:13:47.279Z,12.74
2018-12-04T01:18:37.136Z,12.74
2018-12-04T01:21:14.921Z,12.69
2018-12-04T01:23:45.624Z,12.65
2018-12-04T01:26:16.269Z,12.66
2018-12-04T01:28:46.965Z,12.71
2018-12-04T01:31:17.985Z,12.83
2018-12-04T01:33:48.702Z,12.83
2018-12-04T01:36:19.411Z,12.77
2018-12-04T01:38:51.721Z,12.78
2018-12-04T01:41:24.363Z,12.80
2018-12-04T01:43:55.116Z,12.66
2018-12-04T01:46:25.851Z,12.71
2018-12-04T01:49:06.023Z,12.67
2018-12-04T01:51:36.679Z,12.60
2018-12-04T01:54:08.567Z,12.54
2018-12-04T01:56:39.337Z,12.61
2018-12-04T01:59:10.001Z,12.72
2018-12-04T02:01:41.198Z,12.60
2018-12-04T02:04:11.861Z,12.70
2018-12-04T02:06:42.495Z,12.71
2018-12-04T02:09:13.157Z,12.74
2018-12-04T02:11:43.799Z,12.74
2018-12-04T02:14:14.546Z,12.75
2018-12-04T02:16:45.154Z,12.81
2018-12-04T02:19:15.850Z,12.82
2018-12-04T02:21:46.621Z,12.79
2018-12-04T02:24:17.723Z,12.78
2018-12-04T02:26:49.372Z,12.79
2018-12-04T02:29:20.034Z,12.78
2018-12-04T02:31:50.701Z,12.83
2018-12-04T02:34:21.454Z,12.77
2018-12-04T02:36:52.128Z,12.79
2018-12-04T02:39:23.147Z,12.76
2018-12-04T02:41:53.902Z,12.78
2018-12-04T02:44:24.600Z,12.79
2018-12-04T02:46:55.297Z,12.75
2018-12-04T02:49:25.955Z,12.72
2018-12-04T02:51:56.681Z,12.74
2018-12-04T02:54:27.350Z,12.70
2018-12-04T02:56:58.010Z,12.74
2018-12-04T02:59:29.146Z,12.67
2018-12-04T03:01:59.934Z,12.66
2018-12-04T03:04:35.292Z,12.61
2018-12-04T03:07:05.962Z,12.60
2018-12-04T03:09:36.703Z,12.66
2018-12-04T03:12:07.321Z,12.63
2018-12-04T03:14:38.079Z,12.55
2018-12-04T03:17:08.716Z,12.58
2018-12-04T03:19:45.986Z,12.46
2018-12-04T03:22:16.727Z,12.49
2018-12-04T03:24:47.360Z,12.38
2018-12-04T03:27:18.063Z,12.39
2018-12-04T03:29:48.763Z,12.40
2018-12-04T03:32:19.438Z,12.46
2018-12-04T03:34:50.161Z,12.43
2018-12-04T03:37:20.855Z,12.39
2018-12-04T03:39:54.392Z,12.40
2018-12-04T03:42:25.055Z,12.33
2018-12-04T03:44:55.810Z,12.37
2018-12-04T03:47:30.009Z,12.28
2018-12-04T03:50:00.682Z,12.41
2018-12-04T03:52:35.692Z,12.37
2018-12-04T03:55:06.720Z,12.36
2018-12-04T03:57:37.502Z,12.29
2018-12-04T04:00:09.634Z,12.42
2018-12-04T04:02:40.355Z,12.42
2018-12-04T04:05:10.980Z,12.43
2018-12-04T04:07:41.707Z,12.41
2018-12-04T04:10:12.337Z,12.41
2018-12-04T04:12:44.971Z,12.41
2018-12-04T04:15:15.576Z,12.41
2018-12-04T04:17:46.240Z,12.41
2018-12-04T04:20:16.938Z,12.32
2018-12-04T04:22:47.625Z,12.33
2018-12-04T04:25:18.351Z,12.28
2018-12-04T04:27:49.104Z,12.35
2018-12-04T04:30:19.867Z,12.35
2018-12-04T04:32:50.734Z,12.37
2018-12-04T04:35:23.471Z,12.33
2018-12-04T04:37:54.167Z,12.22
2018-12-04T04:40:24.856Z,12.18
2018-12-04T04:42:55.535Z,12.20
2018-12-04T04:45:26.202Z,12.23
2018-12-04T04:47:56.834Z,12.22
2018-12-04T04:50:27.505Z,12.20
2018-12-04T04:52:58.120Z,12.12
2018-12-04T04:55:28.788Z,12.13
2018-12-04T04:57:59.984Z,12.09
2018-12-04T05:00:30.705Z,12.02
2018-12-04T05:03:03.205Z,12.12
2018-12-04T05:05:39.999Z,12.03
2018-12-04T05:08:10.744Z,11.99
2018-12-04T05:10:41.839Z,11.97
2018-12-04T05:13:12.599Z,11.89
2018-12-04T05:15:43.507Z,11.83
2018-12-04T05:18:14.200Z,11.79
2018-12-04T05:20:45.282Z,11.81
2018-12-04T05:23:15.934Z,11.77
2018-12-04T05:25:46.584Z,11.82
2018-12-04T05:28:17.235Z,11.88
2018-12-04T05:30:47.947Z,11.82
2018-12-04T05:33:18.660Z,11.83
2018-12-04T05:35:49.372Z,11.85
2018-12-04T05:38:21.562Z,11.85
2018-12-04T05:40:52.281Z,11.95
2018-12-04T05:43:22.982Z,11.85
2018-12-04T05:45:53.900Z,11.89
2018-12-04T05:48:24.958Z,11.95
2018-12-04T05:50:55.650Z,11.95
2018-12-04T05:53:36.816Z,12.00
2018-12-04T05:56:10.566Z,11.97
2018-12-04T05:58:41.271Z,12.03
2018-12-04T06:01:12.442Z,11.96
2018-12-04T06:03:44.199Z,11.98
2018-12-04T06:06:14.937Z,11.93
2018-12-04T06:08:49.191Z,11.89
2018-12-04T06:11:20.747Z,11.88
2018-12-04T06:13:53.462Z,11.85
2018-12-04T06:16:24.075Z,11.83
2018-12-04T06:18:55.628Z,11.88
2018-12-04T06:21:27.542Z,11.78
2018-12-04T06:24:05.076Z,11.75
2018-12-04T06:26:38.671Z,11.73
2018-12-04T06:29:09.297Z,11.75
2018-12-04T06:31:42.223Z,11.76
2018-12-04T06:34:12.971Z,11.79
2018-12-04T06:36:44.112Z,11.74
2018-12-04T06:39:14.750Z,11.72
2018-12-04T06:41:45.470Z,11.72
2018-12-04T06:44:16.106Z,11.75
2018-12-04T06:46:46.756Z,11.71
2018-12-04T06:49:17.416Z,11.81
2018-12-04T06:51:48.067Z,11.82
2018-12-04T06:54:18.789Z,11.80
2018-12-04T06:56:51.463Z,11.78
2018-12-04T06:59:31.962Z,11.80
2018-12-04T07:02:04.604Z,11.75
2018-12-04T07:04:35.525Z,11.70
2018-12-04T07:07:18.714Z,11.67
2018-12-04T07:09:50.174Z,11.65
2018-12-04T07:12:20.791Z,11.66
2018-12-04T07:14:51.586Z,11.65
2018-12-04T07:17:23.581Z,11.64
2018-12-04T07:19:54.421Z,11.68
2018-12-04T07:22:25.261Z,11.74
2018-12-04T07:24:56.027Z,11.75
2018-12-04T07:27:26.811Z,11.74
2018-12-04T07:29:58.744Z,11.74
2018-12-04T07:32:29.523Z,11.71
2018-12-04T07:35:00.976Z,11.69
2018-12-04T07:37:32.020Z,11.70
2018-12-04T07:40:04.149Z,11.74
2018-12-04T07:42:39.307Z,11.73
2018-12-04T07:45:11.983Z,11.75
2018-12-04T07:47:42.800Z,11.69
2018-12-04T07:50:20.122Z,11.64
2018-12-04T07:52:51.280Z,11.58
2018-12-04T07:55:22.082Z,11.56
2018-12-04T07:58:05.776Z,11.44
2018-12-04T08:10:09.346Z,11.44
2018-12-04T08:12:40.201Z,11.29
2018-12-04T08:15:11.014Z,11.30
2018-12-04T08:17:42.962Z,11.27
2018-12-04T08:20:13.995Z,11.26
2018-12-04T08:22:44.791Z,11.36
2018-12-04T08:25:15.596Z,11.37
2018-12-04T08:27:46.372Z,11.37
2018-12-04T08:30:17.143Z,11.34
2018-12-04T08:32:47.873Z,11.33
2018-12-04T08:35:19.737Z,11.50
2018-12-04T08:37:50.511Z,11.53
2018-12-04T08:40:21.338Z,11.62
2018-12-04T08:42:53.310Z,11.62
2018-12-04T08:45:24.118Z,11.59
2018-12-04T08:47:55.542Z,11.60
2018-12-04T08:50:27.384Z,11.59
2018-12-04T08:52:58.185Z,11.58
2018-12-04T08:55:29.027Z,11.65
2018-12-04T08:57:59.890Z,11.68
2018-12-04T09:00:32.570Z,11.63
2018-12-04T09:03:05.658Z,11.70
2018-12-04T09:05:36.767Z,11.72
2018-12-04T09:08:09.539Z,11.66
2018-12-04T09:10:40.404Z,11.75
2018-12-04T09:13:11.746Z,11.70
2018-12-04T09:15:43.598Z,11.86
2018-12-04T09:18:14.378Z,11.95
2018-12-04T09:20:45.361Z,11.89
2018-12-04T09:23:16.273Z,11.94
2018-12-04T09:25:47.107Z,12.04
2018-12-04T09:28:18.082Z,12.01
2018-12-04T09:30:50.621Z,11.92
2018-12-04T09:33:21.393Z,12.17
2018-12-04T09:35:55.565Z,12.27
2018-12-04T09:38:30.760Z,12.25
2018-12-04T09:41:04.822Z,12.74
2018-12-04T09:43:35.609Z,12.66
2018-12-04T09:46:09.526Z,12.70
2018-12-04T09:48:40.658Z,12.69
2018-12-04T09:51:11.723Z,12.58
2018-12-04T09:53:42.446Z,12.74
2018-12-04T09:56:13.197Z,12.51
2018-12-04T09:58:43.909Z,12.34
2018-12-04T10:01:14.890Z,12.32
2018-12-04T10:03:45.778Z,12.39
2018-12-04T10:06:29.467Z,12.67
2018-12-04T10:09:00.212Z,12.87
2018-12-04T10:11:33.990Z,13.38
2018-12-04T10:14:09.223Z,13.50
2018-12-04T10:16:41.262Z,13.77
2018-12-04T10:19:12.243Z,13.82
2018-12-04T10:21:42.994Z,13.92
2018-12-04T10:24:13.785Z,14.08
2018-12-04T10:26:46.592Z,14.86
2018-12-04T10:29:17.318Z,15.46
2018-12-04T10:31:48.102Z,15.57
2018-12-04T10:34:18.838Z,15.68
2018-12-04T10:36:49.712Z,15.54
2018-12-04T10:39:20.487Z,15.29
2018-12-04T10:41:51.445Z,15.62
2018-12-04T10:44:22.287Z,15.60
2018-12-04T10:46:53.042Z,16.33
2018-12-04T10:49:23.930Z,16.00
2018-12-04T10:51:55.119Z,15.78
2018-12-04T10:54:26.004Z,15.86
2018-12-04T10:56:56.777Z,16.59
2018-12-04T10:59:28.295Z,17.95
2018-12-04T11:02:04.803Z,18.15
2018-12-04T11:04:36.602Z,18.82
2018-12-04T11:07:07.343Z,20.60
2018-12-04T11:09:38.175Z,21.66
2018-12-04T11:12:12.289Z,22.26
2018-12-04T11:14:42.486Z,22.08
2018-12-04T11:17:13.402Z,22.73
2018-12-04T11:19:44.135Z,23.49
2018-12-04T11:22:15.886Z,24.35
2018-12-04T11:24:47.877Z,24.41
2018-12-04T11:27:18.644Z,25.33
2018-12-04T11:29:50.212Z,25.85
2018-12-04T11:32:21.002Z,27.00
2018-12-04T11:34:52.660Z,27.85
2018-12-04T11:37:23.461Z,27.91
2018-12-04T11:39:55.937Z,28.69
2018-12-04T11:42:26.691Z,28.11
2018-12-04T11:44:58.063Z,29.47
2018-12-04T11:47:29.075Z,29.97
2018-12-04T11:50:04.518Z,31.12
2018-12-04T11:52:35.336Z,30.09
2018-12-04T11:55:08.651Z,30.24
2018-12-04T11:57:39.394Z,30.82
2018-12-04T12:00:20.706Z,30.45
2018-12-04T12:02:51.674Z,31.51
2018-12-04T12:05:22.464Z,32.25
2018-12-04T12:07:55.396Z,33.04
2018-12-04T12:10:26.887Z,33.32
2018-12-04T12:12:57.913Z,33.42
2018-12-04T12:15:28.702Z,34.33
2018-12-04T12:17:59.498Z,35.06
2018-12-04T12:20:30.254Z,32.75
2018-12-04T12:23:01.176Z,31.60
2018-12-04T12:25:33.467Z,32.78
2018-12-04T12:28:06.884Z,31.60
2018-12-04T12:30:37.738Z,31.70
2018-12-04T12:33:08.538Z,30.43
2018-12-04T12:35:39.714Z,30.92
2018-12-04T12:38:10.562Z,32.04
2018-12-04T12:40:41.309Z,31.21
2018-12-04T12:43:12.162Z,30.52
2018-12-04T12:45:43.054Z,28.65
2018-12-04T12:48:13.776Z,28.26
2018-12-04T12:50:44.984Z,27.09
2018-12-04T12:53:16.781Z,27.30
2018-12-04T12:55:47.549Z,26.54
2018-12-04T12:58:19.537Z,26.42
2018-12-04T13:00:52.231Z,25.47
2018-12-04T13:03:24.318Z,24.72
2018-12-04T13:05:55.080Z,24.67
2018-12-04T13:08:25.914Z,23.90
2018-12-04T13:10:57.660Z,22.67
2018-12-04T13:13:28.689Z,22.39
2018-12-04T13:15:59.724Z,21.36
2018-12-04T13:18:30.534Z,21.21
2018-12-04T13:23:37.020Z,20.66
2018-12-04T13:26:08.479Z,20.68
2018-12-04T13:28:39.231Z,20.36
2018-12-04T13:31:11.835Z,20.21
2018-12-04T13:33:43.567Z,20.21
2018-12-04T13:36:16.371Z,20.37
2018-12-04T13:38:47.284Z,20.52
2018-12-04T13:41:19.922Z,20.47
2018-12-04T13:43:51.969Z,20.42
2018-12-04T13:46:22.763Z,20.61
2018-12-04T13:48:53.540Z,20.77
2018-12-04T13:51:24.381Z,20.77
2018-12-04T13:53:59.710Z,20.79
2018-12-04T13:56:30.645Z,20.86
2018-12-04T13:59:05.758Z,20.75
2018-12-04T14:01:36.551Z,20.85
2018-12-04T14:04:08.329Z,20.88
2018-12-04T14:06:39.274Z,20.57
2018-12-04T14:09:10.099Z,20.54
2018-12-04T14:11:40.860Z,20.72
2018-12-04T14:14:11.764Z,20.57
2018-12-04T14:16:42.600Z,20.81
2018-12-04T14:19:13.497Z,20.94
2018-12-04T14:21:46.612Z,20.83
2018-12-04T14:24:18.267Z,20.56
2018-12-04T14:26:49.022Z,20.34
2018-12-04T14:29:19.814Z,20.38
2018-12-04T14:31:50.614Z,20.23
2018-12-04T14:34:21.564Z,20.19
2018-12-04T14:36:52.303Z,20.10
2018-12-04T14:39:23.300Z,19.96
2018-12-04T14:41:54.682Z,19.68
2018-12-04T14:44:25.643Z,19.68
2018-12-04T14:46:56.802Z,19.68
2018-12-04T14:49:27.543Z,19.67
2018-12-04T14:51:58.293Z,19.69
2018-12-04T14:54:29.038Z,19.74
2018-12-04T14:56:59.782Z,19.50
2018-12-04T14:59:30.541Z,19.52
2018-12-04T15:02:05.619Z,19.59
2018-12-04T15:04:37.607Z,19.45
2018-12-04T15:07:08.417Z,19.49
2018-12-04T15:09:39.278Z,19.37
2018-12-04T15:12:10.031Z,19.44
2018-12-04T15:14:40.866Z,19.38
2018-12-04T15:17:11.591Z,19.33
2018-12-04T15:19:42.501Z,19.29
2018-12-04T15:22:14.312Z,19.19
2018-12-04T15:24:45.147Z,19.15
2018-12-04T15:27:15.892Z,19.14
2018-12-04T15:29:46.705Z,19.21
2018-12-04T15:32:17.510Z,19.14
2018-12-04T15:34:48.343Z,19.10
2018-12-04T15:37:19.044Z,19.09
2018-12-04T15:39:49.932Z,19.13
2018-12-04T15:42:21.922Z,19.09
2018-12-04T15:44:52.793Z,19.07
2018-12-04T15:47:23.810Z,19.04
2018-12-04T15:49:54.698Z,18.99
2018-12-04T15:52:25.517Z,18.89
2018-12-04T15:55:01.430Z,18.80
2018-12-04T15:57:41.642Z,18.74
2018-12-04T16:00:13.085Z,18.67
2018-12-04T16:02:46.241Z,18.67
2018-12-04T16:05:17.178Z,18.57
2018-12-04T16:07:48.064Z,18.46
2018-12-04T16:10:22.011Z,18.42
2018-12-04T16:12:53.297Z,18.33
2018-12-04T16:15:24.751Z,18.25
2018-12-04T16:17:58.354Z,18.13
2018-12-04T16:20:30.541Z,18.07
2018-12-04T16:23:42.017Z,17.91
2018-12-04T16:26:34.697Z,17.59
2018-12-04T16:29:09.140Z,17.40
2018-12-04T16:31:46.906Z,17.23
2018-12-04T16:34:17.815Z,17.07
2018-12-04T16:36:48.635Z,16.93
2018-12-04T16:39:19.444Z,16.88
2018-12-04T16:41:50.218Z,16.70
2018-12-04T16:44:20.977Z,16.55
2018-12-04T16:46:53.803Z,16.43
2018-12-04T16:49:24.669Z,16.21
2018-12-04T16:51:55.388Z,16.02
2018-12-04T16:54:26.581Z,15.89
2018-12-04T16:56:57.330Z,15.75
2018-12-04T16:59:28.987Z,15.65
2018-12-04T17:02:00.521Z,15.52
2018-12-04T17:07:33.475Z,15.30
2018-12-04T17:10:09.424Z,15.16
2018-12-04T17:12:40.215Z,15.01
2018-12-04T17:15:11.380Z,15.03
2018-12-04T17:17:42.126Z,14.98
2018-12-04T17:20:13.106Z,14.89
2018-12-04T17:22:43.854Z,14.84
2018-12-04T17:25:15.959Z,14.75
2018-12-04T17:27:47.223Z,14.66
2018-12-04T17:30:20.203Z,14.45
2018-12-04T17:32:51.249Z,14.32
2018-12-04T17:35:22.008Z,14.22
2018-12-04T17:37:52.834Z,14.10
2018-12-04T17:40:23.619Z,14.00
2018-12-04T17:42:54.550Z,13.91
2018-12-04T17:45:25.296Z,13.85
2018-12-04T17:47:56.057Z,13.79
2018-12-04T17:50:26.814Z,13.77
2018-12-04T17:52:57.610Z,13.68
2018-12-04T17:55:28.385Z,13.65
2018-12-04T17:58:00.352Z,13.60
2018-12-04T18:00:32.142Z,13.58
2018-12-04T18:03:07.893Z,13.48
2018-12-04T18:05:38.791Z,13.41
2018-12-04T18:08:09.555Z,13.35
2018-12-04T18:10:42.529Z,13.26
2018-12-04T18:13:14.380Z,13.26
2018-12-04T18:15:47.173Z,13.22
2018-12-04T18:18:19.095Z,13.13
2018-12-04T18:20:50.509Z,13.06
2018-12-04T18:23:21.551Z,13.01
2018-12-04T18:25:52.234Z,12.96
2018-12-04T18:28:23.973Z,12.89
2018-12-04T18:30:56.261Z,12.88
2018-12-04T18:33:27.107Z,12.85
2018-12-04T18:35:57.962Z,12.74
2018-12-04T18:38:28.718Z,12.73
2018-12-04T18:41:00.238Z,12.65
2018-12-04T18:43:36.720Z,12.53
2018-12-04T18:46:07.502Z,12.47
2018-12-04T18:48:38.351Z,12.30
2018-12-04T18:51:09.241Z,12.39
2018-12-04T18:53:40.015Z,12.32
2018-12-04T18:56:10.791Z,12.31
2018-12-04T18:58:41.597Z,12.24
2018-12-04T19:01:12.548Z,12.27
2018-12-04T19:03:43.284Z,12.15
2018-12-04T19:06:14.046Z,12.03
2018-12-04T19:08:50.390Z,11.96
2018-12-04T19:11:23.146Z,11.87
2018-12-04T19:13:53.966Z,11.73
2018-12-04T19:16:26.089Z,11.69
2018-12-04T19:18:56.884Z,11.66
2018-12-04T19:21:27.671Z,11.66
2018-12-04T19:23:58.818Z,11.64
2018-12-04T19:26:30.761Z,11.59
2018-12-04T19:29:03.690Z,11.66
2018-12-04T19:31:34.562Z,11.74
2018-12-04T19:34:06.210Z,11.69
2018-12-04T19:36:37.821Z,11.57
2018-12-04T19:39:09.978Z,11.46
2018-12-04T19:41:40.668Z,11.41
2018-12-04T19:44:11.324Z,11.41
2018-12-04T19:46:43.466Z,11.38
2018-12-04T19:49:14.155Z,11.28
2018-12-04T19:51:44.851Z,11.32
2018-12-04T19:54:15.465Z,11.23
2018-12-04T19:56:46.128Z,11.11
2018-12-04T19:59:16.747Z,11.08
2018-12-04T20:01:47.554Z,11.02
2018-12-04T20:04:18.231Z,11.03
2018-12-04T20:06:49.840Z,10.96
2018-12-04T20:09:20.615Z,11.01
2018-12-04T20:11:51.358Z,10.99
2018-12-04T20:14:22.039Z,10.82
2018-12-04T20:16:53.128Z,10.81
2018-12-04T20:19:23.855Z,10.70
2018-12-04T20:21:54.512Z,10.67
2018-12-04T20:24:25.315Z,10.66
2018-12-04T20:26:56.146Z,10.57
2018-12-04T20:29:26.800Z,10.60
2018-12-04T20:31:57.454Z,10.52
2018-12-04T20:34:28.067Z,10.45
2018-12-04T20:36:58.742Z,10.46
2018-12-04T20:39:29.694Z,10.45
2018-12-04T20:42:00.396Z,10.41
2018-12-04T20:44:36.407Z,10.32
2018-12-04T20:47:08.098Z,10.19
2018-12-04T20:49:38.755Z,10.13
2018-12-04T20:52:09.445Z,10.10
2018-12-04T20:54:40.049Z,10.08
2018-12-04T20:57:12.660Z,10.05
2018-12-04T20:59:44.351Z,10.06
2018-12-04T21:02:15.130Z,10.00
2018-12-04T21:04:45.826Z,9.97
2018-12-04T21:07:16.614Z,9.96
2018-12-04T21:09:47.264Z,9.94
2018-12-04T21:12:17.957Z,9.90
2018-12-04T21:14:48.635Z,9.84
2018-12-04T21:17:19.327Z,9.82
2018-12-04T21:19:50.696Z,9.73
2018-12-04T21:22:28.023Z,9.71
2018-12-04T21:24:59.138Z,9.65
2018-12-04T21:28:36.643Z,9.63
2018-12-04T21:31:12.410Z,9.62
2018-12-04T21:33:48.388Z,9.67
2018-12-04T21:36:24.260Z,9.73
2018-12-04T21:39:15.975Z,9.70
2018-12-04T21:41:51.948Z,9.73
2018-12-04T21:44:28.250Z,9.80
2018-12-04T21:47:05.600Z,9.74
2018-12-04T21:49:36.353Z,9.62
2018-12-04T21:52:08.488Z,9.56
2018-12-04T21:54:39.670Z,9.47
2018-12-04T21:57:10.312Z,9.39
2018-12-04T21:59:41.059Z,9.35
2018-12-04T22:02:11.744Z,9.36
2018-12-04T22:04:42.334Z,9.40
2018-12-04T22:07:13.046Z,9.40
2018-12-04T22:09:44.299Z,9.34
2018-12-04T22:12:14.966Z,9.36
2018-12-04T22:14:45.595Z,9.33
2018-12-04T22:17:16.282Z,9.30
2018-12-04T22:19:46.890Z,9.24
2018-12-04T22:22:17.582Z,9.22
2018-12-04T22:24:49.675Z,9.17
2018-12-04T22:27:20.357Z,9.25
2018-12-04T22:29:51.075Z,9.27
2018-12-04T22:32:21.680Z,9.19
2018-12-04T22:34:52.436Z,9.07
2018-12-04T22:37:23.213Z,9.04
2018-12-04T22:39:54.975Z,8.98
2018-12-04T22:42:26.486Z,8.89
2018-12-04T22:45:05.906Z,8.80
2018-12-04T22:47:38.452Z,8.59
2018-12-04T22:50:10.734Z,8.78
2018-12-04T22:52:41.463Z,8.74
2018-12-04T22:55:13.922Z,8.70
2018-12-04T22:57:44.829Z,8.73
2018-12-04T23:00:32.414Z,8.64
2018-12-04T23:03:06.475Z,8.73
2018-12-04T23:05:37.443Z,8.74
2018-12-04T23:08:08.221Z,8.72
2018-12-04T23:10:38.894Z,8.69
2018-12-04T23:13:09.589Z,8.62
2018-12-04T23:15:41.118Z,8.59
2018-12-04T23:18:11.801Z,8.55
2018-12-04T23:20:43.010Z,8.56
2018-12-04T23:23:13.693Z,8.63
2018-12-04T23:25:45.510Z,8.66
2018-12-04T23:28:16.168Z,8.64
2018-12-04T23:30:46.871Z,8.67
2018-12-04T23:33:17.581Z,8.66
2018-12-04T23:35:48.212Z,8.62
2018-12-04T23:38:20.530Z,8.50
2018-12-04T23:40:52.413Z,8.41
2018-12-04T23:43:23.013Z,8.41
2018-12-04T23:45:53.689Z,8.34
2018-12-04T23:48:26.462Z,8.29
2018-12-04T23:50:57.637Z,8.30
2018-12-04T23:53:28.269Z,8.23
2018-12-04T23:55:59.922Z,8.14
2018-12-04T23:58:30.677Z,8.13
